Time;durP1;ratioP1;P1;durP2;ratioP2;P2;SDS_P1;SDS_P2;PMS_P1;PMS_P2;Temp;Humidity;BMP_temperature;BMP_pressure;BME280_temperature;BME280_humidity;BME280_pressure;Samples;Min_cycle;Max_cycle;Signal;HPM_P1;HPM_P2
2022/11/23 00:01:11;;;;;;;;;;;7.70;99.90;;;;;;5105354;28;20743;-69
2022/11/23 00:03:37;;;;;;;;;;;7.70;99.90;;;;;;5097233;27;19924;-68
2022/11/23 00:06:02;;;;;;;;;;;7.80;99.90;;;;;;5104190;27;19973;-69
2022/11/23 00:08:28;;;;;;;;;;;7.70;99.90;;;;;;5096264;27;19954;-69
2022/11/23 00:10:56;;;;;;;;;;;7.80;99.90;;;;;;5107649;27;19942;-70
2022/11/23 00:13:22;;;;;;;;;;;7.70;99.90;;;;;;5100164;27;20369;-68
2022/11/23 00:15:47;;;;;;;;;;;7.80;99.90;;;;;;5102422;28;19942;-72
2022/11/23 00:18:13;;;;;;;;;;;7.70;99.90;;;;;;5095376;27;19930;-69
2022/11/23 00:20:39;;;;;;;;;;;7.70;99.90;;;;;;5101968;28;19920;-69
2022/11/23 00:23:04;;;;;;;;;;;7.70;99.90;;;;;;5109471;27;20294;-68
2022/11/23 00:25:30;;;;;;;;;;;7.70;99.90;;;;;;5098400;27;19923;-69
2022/11/23 00:27:55;;;;;;;;;;;7.80;99.90;;;;;;5112257;27;19920;-69
2022/11/23 00:30:21;;;;;;;;;;;7.70;99.90;;;;;;5102778;27;19920;-69
2022/11/23 00:32:46;;;;;;;;;;;7.80;99.90;;;;;;5098697;27;19924;-69
2022/11/23 00:35:12;;;;;;;;;;;7.80;99.90;;;;;;5102122;27;19924;-69
2022/11/23 00:37:37;;;;;;;;;;;7.80;99.90;;;;;;5105935;27;19920;-69
2022/11/23 00:40:03;;;;;;;;;;;7.80;99.90;;;;;;5099883;27;19920;-69
2022/11/23 00:42:28;;;;;;;;;;;7.90;99.90;;;;;;5103844;28;19923;-69
2022/11/23 00:44:55;;;;;;;;;;;7.90;99.90;;;;;;5092327;27;19920;-69
2022/11/23 00:47:20;;;;;;;;;;;7.80;99.90;;;;;;5100976;27;19927;-69
2022/11/23 00:49:45;;;;;;;;;;;7.80;99.90;;;;;;5095914;27;20265;-69
2022/11/23 00:52:11;;;;;;;;;;;7.80;99.90;;;;;;5129698;27;20065;-69
2022/11/23 00:54:36;;;;;;;;;;;7.80;99.90;;;;;;5096458;27;19920;-73
2022/11/23 00:57:02;;;;;;;;;;;7.80;99.90;;;;;;5093116;27;19926;-73
2022/11/23 00:59:28;;;;;;;;;;;7.80;99.90;;;;;;5096252;27;19961;-73
2022/11/23 01:01:53;;;;;;;;;;;7.80;99.90;;;;;;5092187;27;20286;-73
2022/11/23 01:04:19;;;;;;;;;;;7.80;99.90;;;;;;5095065;27;20320;-73
2022/11/23 01:06:44;;;;;;;;;;;7.80;99.90;;;;;;5124333;27;19923;-73
2022/11/23 01:09:12;;;;;;;;;;;7.80;99.90;;;;;;5096362;27;20331;-73
2022/11/23 01:11:37;;;;;;;;;;;7.90;99.90;;;;;;5100781;27;20184;-73
2022/11/23 01:14:03;;;;;;;;;;;7.80;99.90;;;;;;5100253;27;19967;-73
2022/11/23 01:16:30;;;;;;;;;;;7.90;99.90;;;;;;5130016;27;19924;-73
2022/11/23 01:18:57;;;;;;;;;;;7.80;99.90;;;;;;5128068;27;20271;-73
2022/11/23 01:21:23;;;;;;;;;;;7.90;99.90;;;;;;5092828;27;20411;-73
2022/11/23 01:23:49;;;;;;;;;;;7.90;99.90;;;;;;5094520;27;20426;-74
2022/11/23 01:26:14;;;;;;;;;;;7.90;99.90;;;;;;5093057;27;20023;-73
2022/11/23 01:28:40;;;;;;;;;;;7.90;99.90;;;;;;5126478;27;20390;-73
2022/11/23 01:31:07;;;;;;;;;;;7.80;99.90;;;;;;5095463;27;19924;-73
2022/11/23 01:33:33;;;;;;;;;;;7.90;99.90;;;;;;5097098;27;19920;-73
2022/11/23 01:35:58;;;;;;;;;;;7.90;99.90;;;;;;5097936;28;19975;-73
2022/11/23 01:38:24;;;;;;;;;;;7.90;99.90;;;;;;5099001;27;19974;-73
2022/11/23 01:40:49;;;;;;;;;;;7.90;99.90;;;;;;5095810;27;20010;-73
2022/11/23 01:43:16;;;;;;;;;;;7.90;99.90;;;;;;5093687;27;19927;-74
2022/11/23 01:45:53;;;;;;;;;;;7.90;99.90;;;;;;5095073;27;20255;-73
2022/11/23 01:48:25;;;;;;;;;;;7.90;99.90;;;;;;5097338;28;19955;-73
2022/11/23 01:50:51;;;;;;;;;;;8.00;99.90;;;;;;5088021;28;20269;-74
2022/11/23 01:53:18;;;;;;;;;;;7.90;99.90;;;;;;5071258;28;19931;-73
2022/11/23 01:55:45;;;;;;;;;;;8.00;99.90;;;;;;5100386;27;19995;-73
2022/11/23 01:58:11;;;;;;;;;;;8.00;99.90;;;;;;5096364;28;19959;-72
2022/11/23 02:00:37;;;;;;;;;;;7.90;99.90;;;;;;5096034;28;19924;-72
2022/11/23 02:03:03;;;;;;;;;;;8.00;99.90;;;;;;5092176;27;19927;-72
2022/11/23 02:05:30;;;;;;;;;;;7.90;99.90;;;;;;5102066;27;19973;-72
2022/11/23 02:07:56;;;;;;;;;;;8.00;99.90;;;;;;5098466;27;19924;-72
2022/11/23 02:10:22;;;;;;;;;;;7.90;99.90;;;;;;5074768;28;19920;-72
2022/11/23 02:12:48;;;;;;;;;;;7.90;99.90;;;;;;5086280;28;19931;-73
2022/11/23 02:15:13;;;;;;;;;;;7.90;99.90;;;;;;5074151;28;19927;-72
2022/11/23 02:17:39;;;;;;;;;;;7.90;99.90;;;;;;5081836;28;19923;-72
2022/11/23 02:20:15;;;;;;;;;;;7.90;99.90;;;;;;5077104;28;19973;-72
2022/11/23 02:22:56;;;;;;;;;;;8.00;99.90;;;;;;5075569;28;20409;-73
2022/11/23 02:25:34;;;;;;;;;;;8.00;99.90;;;;;;5079669;28;19959;-73
2022/11/23 02:28:00;;;;;;;;;;;8.00;99.90;;;;;;5079533;28;19926;-73
2022/11/23 02:30:26;;;;;;;;;;;8.00;99.90;;;;;;5083053;28;19935;-74
2022/11/23 02:32:51;;;;;;;;;;;8.00;99.90;;;;;;5082402;28;20237;-69
2022/11/23 02:35:17;;;;;;;;;;;8.10;99.90;;;;;;5084006;28;19926;-73
2022/11/23 02:37:42;;;;;;;;;;;8.00;99.90;;;;;;5075984;28;20366;-73
2022/11/23 02:40:37;;;;;;;;;;;8.10;99.90;;;;;;5076160;28;19958;-73
2022/11/23 02:43:03;;;;;;;;;;;8.10;99.90;;;;;;5056914;28;19928;-73
2022/11/23 02:45:47;;;;;;;;;;;8.10;99.90;;;;;;5118975;27;19942;-73
2022/11/23 02:48:17;;;;;;;;;;;8.10;99.90;;;;;;5078133;28;20464;-71
2022/11/23 02:50:42;;;;;;;;;;;8.10;99.90;;;;;;5082053;28;19927;-72
2022/11/23 02:53:08;;;;;;;;;;;8.00;99.90;;;;;;5085815;28;20294;-74
2022/11/23 02:55:33;;;;;;;;;;;8.10;99.90;;;;;;5114917;27;19977;-72
2022/11/23 02:57:59;;;;;;;;;;;8.00;99.90;;;;;;5081728;28;19920;-71
2022/11/23 03:00:24;;;;;;;;;;;8.10;99.90;;;;;;5083108;28;19920;-73
2022/11/23 03:02:50;;;;;;;;;;;8.10;99.90;;;;;;5080763;28;20504;-70
2022/11/23 03:05:15;;;;;;;;;;;8.10;99.90;;;;;;5076296;28;19927;-73
2022/11/23 03:07:41;;;;;;;;;;;8.10;99.90;;;;;;5079972;28;20310;-73
2022/11/23 03:10:07;;;;;;;;;;;8.00;99.90;;;;;;5079063;28;19920;-73
2022/11/23 03:12:33;;;;;;;;;;;8.10;99.90;;;;;;5110623;27;20332;-74
2022/11/23 03:14:58;;;;;;;;;;;8.10;99.90;;;;;;5114169;27;19924;-74
2022/11/23 03:17:24;;;;;;;;;;;8.10;99.90;;;;;;5080395;27;19931;-72
2022/11/23 03:19:49;;;;;;;;;;;8.10;99.90;;;;;;5077850;28;20286;-71
2022/11/23 03:22:15;;;;;;;;;;;8.10;99.90;;;;;;5062777;28;20302;-69
2022/11/23 03:24:40;;;;;;;;;;;8.10;99.90;;;;;;5079757;28;19959;-68
2022/11/23 03:27:06;;;;;;;;;;;8.00;99.90;;;;;;5114480;27;20376;-68
2022/11/23 03:29:31;;;;;;;;;;;8.00;99.90;;;;;;5078382;27;19920;-68
2022/11/23 03:31:57;;;;;;;;;;;8.10;99.90;;;;;;5075564;27;19920;-68
2022/11/23 03:34:22;;;;;;;;;;;8.00;99.90;;;;;;5084476;28;20397;-68
2022/11/23 03:36:48;;;;;;;;;;;8.00;99.90;;;;;;5115283;27;19927;-68
2022/11/23 03:39:13;;;;;;;;;;;8.10;99.90;;;;;;5078594;28;20319;-71
2022/11/23 03:41:39;;;;;;;;;;;8.00;99.90;;;;;;5076186;28;19928;-68
2022/11/23 03:44:04;;;;;;;;;;;8.10;99.90;;;;;;5078287;27;19935;-69
2022/11/23 03:46:30;;;;;;;;;;;8.00;99.90;;;;;;5081083;27;20488;-69
2022/11/23 03:48:55;;;;;;;;;;;7.90;99.90;;;;;;5058750;27;20303;-69
2022/11/23 03:51:21;;;;;;;;;;;8.00;99.90;;;;;;5080063;27;20030;-67
2022/11/23 03:53:46;;;;;;;;;;;7.90;99.90;;;;;;5108123;27;20304;-68
2022/11/23 03:56:11;;;;;;;;;;;8.00;99.90;;;;;;5093613;27;19931;-68
2022/11/23 03:58:37;;;;;;;;;;;8.00;99.90;;;;;;5076250;28;19920;-68
2022/11/23 04:01:02;;;;;;;;;;;7.90;99.90;;;;;;5107670;27;19951;-67
2022/11/23 04:03:28;;;;;;;;;;;7.90;99.90;;;;;;5076434;27;19920;-68
2022/11/23 04:05:53;;;;;;;;;;;7.90;99.90;;;;;;5112578;27;20068;-68
2022/11/23 04:08:19;;;;;;;;;;;7.90;99.90;;;;;;5080604;28;19934;-69
2022/11/23 04:10:44;;;;;;;;;;;7.90;99.90;;;;;;5094534;27;19920;-68
2022/11/23 04:13:11;;;;;;;;;;;7.80;99.90;;;;;;5093653;27;21286;-68
2022/11/23 04:15:37;;;;;;;;;;;7.70;99.90;;;;;;5102338;28;20373;-68
2022/11/23 04:18:02;;;;;;;;;;;7.70;99.90;;;;;;5100450;27;19935;-68
2022/11/23 04:20:28;;;;;;;;;;;7.70;99.90;;;;;;5103264;27;19927;-68
2022/11/23 04:22:53;;;;;;;;;;;7.70;99.90;;;;;;5101781;27;19928;-67
2022/11/23 04:25:19;;;;;;;;;;;7.60;99.90;;;;;;5101466;27;20015;-68
2022/11/23 04:27:44;;;;;;;;;;;7.70;99.90;;;;;;5101953;27;20052;-68
2022/11/23 04:30:10;;;;;;;;;;;7.80;99.90;;;;;;5102012;27;19920;-67
2022/11/23 04:32:35;;;;;;;;;;;7.70;99.90;;;;;;5095125;27;19954;-68
2022/11/23 04:35:01;;;;;;;;;;;7.70;99.90;;;;;;5101993;27;20015;-68
2022/11/23 04:37:26;;;;;;;;;;;7.70;99.90;;;;;;5097073;27;20386;-67
2022/11/23 04:39:52;;;;;;;;;;;7.70;99.90;;;;;;5084933;28;19926;-69
2022/11/23 04:42:17;;;;;;;;;;;7.70;99.90;;;;;;5097470;27;19963;-68
2022/11/23 04:44:43;;;;;;;;;;;7.70;99.90;;;;;;5098977;27;19920;-66
2022/11/23 04:47:09;;;;;;;;;;;7.60;99.90;;;;;;5097727;27;19927;-68
2022/11/23 04:49:35;;;;;;;;;;;7.60;99.90;;;;;;5102327;27;19920;-68
2022/11/23 04:52:00;;;;;;;;;;;7.70;99.90;;;;;;5095060;27;21392;-68
2022/11/23 04:54:26;;;;;;;;;;;7.70;99.90;;;;;;5098697;28;19920;-69
2022/11/23 04:56:53;;;;;;;;;;;7.70;99.90;;;;;;5100503;27;19920;-70
2022/11/23 04:59:18;;;;;;;;;;;7.80;99.90;;;;;;5105216;27;19928;-70
2022/11/23 05:01:44;;;;;;;;;;;7.80;99.90;;;;;;5100813;27;20374;-70
2022/11/23 05:04:10;;;;;;;;;;;7.70;99.90;;;;;;5098282;27;19927;-69
2022/11/23 05:06:35;;;;;;;;;;;7.80;99.90;;;;;;5096236;28;19920;-69
2022/11/23 05:09:00;;;;;;;;;;;7.70;99.90;;;;;;5099000;27;20416;-71
2022/11/23 05:11:26;;;;;;;;;;;7.80;99.90;;;;;;5118212;27;19959;-70
2022/11/23 05:13:51;;;;;;;;;;;7.70;99.90;;;;;;5099409;27;19927;-70
2022/11/23 05:16:17;;;;;;;;;;;7.80;99.90;;;;;;5097341;27;20358;-70
2022/11/23 05:18:42;;;;;;;;;;;7.70;99.90;;;;;;5094869;28;19928;-70
2022/11/23 05:21:08;;;;;;;;;;;7.80;99.90;;;;;;5097153;27;20359;-70
2022/11/23 05:23:33;;;;;;;;;;;7.70;99.90;;;;;;5129122;27;19928;-68
2022/11/23 05:25:59;;;;;;;;;;;7.80;99.90;;;;;;5131826;27;20427;-70
2022/11/23 05:28:24;;;;;;;;;;;7.70;99.90;;;;;;5101892;27;19926;-68
2022/11/23 05:30:50;;;;;;;;;;;7.70;99.90;;;;;;5104213;27;19959;-68
2022/11/23 05:33:15;;;;;;;;;;;7.70;99.90;;;;;;5097860;27;19933;-68
2022/11/23 05:35:41;;;;;;;;;;;7.50;99.90;;;;;;5094723;27;19927;-68
2022/11/23 05:38:06;;;;;;;;;;;7.60;99.90;;;;;;5096791;27;20443;-68
2022/11/23 05:40:31;;;;;;;;;;;7.50;99.90;;;;;;5136658;27;20340;-68
2022/11/23 05:42:57;;;;;;;;;;;7.50;99.90;;;;;;5095923;27;19932;-68
2022/11/23 05:45:23;;;;;;;;;;;7.50;99.90;;;;;;5107493;28;20146;-68
2022/11/23 05:47:53;;;;;;;;;;;7.40;99.90;;;;;;5100431;27;19920;-68
2022/11/23 05:50:19;;;;;;;;;;;7.40;99.90;;;;;;5106889;28;20452;-67
2022/11/23 05:52:44;;;;;;;;;;;7.40;99.90;;;;;;5105273;28;19927;-69
2022/11/23 05:55:10;;;;;;;;;;;7.30;99.90;;;;;;5100393;28;19924;-68
2022/11/23 05:57:35;;;;;;;;;;;7.30;99.90;;;;;;5105529;28;19926;-68
2022/11/23 06:00:01;;;;;;;;;;;7.20;99.90;;;;;;5103289;28;20143;-69
2022/11/23 06:02:27;;;;;;;;;;;7.30;99.90;;;;;;5091199;28;20019;-67
2022/11/23 06:04:52;;;;;;;;;;;7.20;99.90;;;;;;5099833;27;20053;-68
2022/11/23 06:07:18;;;;;;;;;;;7.20;99.90;;;;;;5106363;27;19928;-68
2022/11/23 06:09:43;;;;;;;;;;;7.10;99.90;;;;;;5101024;28;19928;-68
2022/11/23 06:12:09;;;;;;;;;;;7.20;99.90;;;;;;5095015;28;19951;-68
2022/11/23 06:14:34;;;;;;;;;;;7.10;99.90;;;;;;5100815;28;19920;-68
2022/11/23 06:17:00;;;;;;;;;;;7.00;99.90;;;;;;5095576;27;20534;-69
2022/11/23 06:19:25;;;;;;;;;;;7.10;99.90;;;;;;5101434;28;19920;-68
2022/11/23 06:21:50;;;;;;;;;;;7.00;99.90;;;;;;5095498;27;19932;-67
2022/11/23 06:24:16;;;;;;;;;;;6.90;99.90;;;;;;5102304;28;19981;-68
2022/11/23 06:26:41;;;;;;;;;;;6.80;99.90;;;;;;5095071;28;19959;-69
2022/11/23 06:29:07;;;;;;;;;;;6.80;99.90;;;;;;5102178;27;19926;-69
2022/11/23 06:31:32;;;;;;;;;;;6.70;99.90;;;;;;5100502;28;19924;-70
2022/11/23 06:33:58;;;;;;;;;;;6.70;99.90;;;;;;5105621;28;19928;-69
2022/11/23 06:36:23;;;;;;;;;;;6.70;99.90;;;;;;5096236;28;20351;-69
2022/11/23 06:38:49;;;;;;;;;;;6.70;99.90;;;;;;5094501;28;19980;-71
2022/11/23 06:41:14;;;;;;;;;;;6.80;99.90;;;;;;5099626;28;20366;-71
2022/11/23 06:43:40;;;;;;;;;;;6.90;99.90;;;;;;5110577;28;20287;-69
2022/11/23 06:46:06;;;;;;;;;;;6.90;99.90;;;;;;5096548;28;19919;-69
2022/11/23 06:48:32;;;;;;;;;;;6.90;99.90;;;;;;5093459;28;19928;-71
2022/11/23 06:50:58;;;;;;;;;;;7.00;99.90;;;;;;5098164;28;19934;-71
2022/11/23 06:53:25;;;;;;;;;;;7.10;99.90;;;;;;5096052;28;19923;-71
2022/11/23 06:55:50;;;;;;;;;;;7.00;99.90;;;;;;5096977;28;20308;-71
2022/11/23 06:58:16;;;;;;;;;;;7.10;99.90;;;;;;5105180;28;19923;-71
2022/11/23 07:00:41;;;;;;;;;;;7.20;99.90;;;;;;5096317;28;20007;-70
2022/11/23 07:03:15;;;;;;;;;;;7.10;99.90;;;;;;5133767;27;19923;-70
2022/11/23 07:05:41;;;;;;;;;;;7.20;99.90;;;;;;5103368;28;19941;-70
2022/11/23 07:08:06;;;;;;;;;;;7.20;99.90;;;;;;5124902;27;20418;-70
2022/11/23 07:10:32;;;;;;;;;;;7.20;99.90;;;;;;5098176;28;19927;-70
2022/11/23 07:13:02;;;;;;;;;;;7.20;99.90;;;;;;5091029;28;19931;-70
2022/11/23 07:15:27;;;;;;;;;;;7.20;99.90;;;;;;5108366;28;19975;-70
2022/11/23 07:17:53;;;;;;;;;;;7.30;99.90;;;;;;5092071;28;19970;-69
2022/11/23 07:20:18;;;;;;;;;;;7.30;99.90;;;;;;5100860;28;19931;-71
2022/11/23 07:22:43;;;;;;;;;;;7.30;99.90;;;;;;5129970;27;19928;-70
2022/11/23 07:25:10;;;;;;;;;;;7.30;99.90;;;;;;5107452;28;20381;-71
2022/11/23 07:27:35;;;;;;;;;;;7.30;99.90;;;;;;5099581;28;20294;-71
2022/11/23 07:30:01;;;;;;;;;;;7.40;99.90;;;;;;5108778;28;19930;-69
2022/11/23 07:32:27;;;;;;;;;;;7.40;99.90;;;;;;5103104;27;19924;-70
2022/11/23 07:34:52;;;;;;;;;;;7.40;99.90;;;;;;5092298;28;19943;-70
2022/11/23 07:37:18;;;;;;;;;;;7.30;99.90;;;;;;5099291;28;20263;-70
2022/11/23 07:39:43;;;;;;;;;;;7.30;99.90;;;;;;5092508;28;19935;-70
2022/11/23 07:42:09;;;;;;;;;;;7.40;99.90;;;;;;5098359;28;19970;-70
2022/11/23 07:44:34;;;;;;;;;;;7.30;99.90;;;;;;5109118;27;20032;-70
2022/11/23 07:47:00;;;;;;;;;;;7.40;99.90;;;;;;5127041;27;19942;-70
2022/11/23 07:49:25;;;;;;;;;;;7.50;99.90;;;;;;5126529;27;20015;-71
2022/11/23 07:51:52;;;;;;;;;;;7.50;99.90;;;;;;5089691;27;19935;-69
2022/11/23 07:54:18;;;;;;;;;;;7.60;99.90;;;;;;5095853;27;19920;-70
2022/11/23 07:56:43;;;;;;;;;;;7.50;99.90;;;;;;5093123;27;19924;-71
2022/11/23 07:59:08;;;;;;;;;;;7.60;99.90;;;;;;5090098;28;19935;-70
2022/11/23 08:01:34;;;;;;;;;;;7.50;99.90;;;;;;5106111;28;19932;-71
2022/11/23 08:04:01;;;;;;;;;;;7.60;99.90;;;;;;5113882;28;19920;-72
2022/11/23 08:06:27;;;;;;;;;;;7.70;99.90;;;;;;5103767;28;19920;-71
2022/11/23 08:08:54;;;;;;;;;;;7.70;99.90;;;;;;5092206;28;20295;-72
2022/11/23 08:11:21;;;;;;;;;;;7.60;99.90;;;;;;5129427;27;20378;-72
2022/11/23 08:13:47;;;;;;;;;;;7.70;99.90;;;;;;5109522;28;20409;-72
2022/11/23 08:16:12;;;;;;;;;;;7.80;99.90;;;;;;5123163;27;19919;-72
2022/11/23 08:18:38;;;;;;;;;;;7.70;99.90;;;;;;5112722;28;20287;-71
2022/11/23 08:21:03;;;;;;;;;;;7.80;99.90;;;;;;5095991;28;20010;-72
2022/11/23 08:23:29;;;;;;;;;;;7.80;99.90;;;;;;5100986;28;19920;-73
2022/11/23 08:25:54;;;;;;;;;;;7.80;99.90;;;;;;5112138;28;19920;-72
2022/11/23 08:28:20;;;;;;;;;;;7.80;99.90;;;;;;5093998;28;19994;-72
2022/11/23 08:30:46;;;;;;;;;;;7.80;99.90;;;;;;5096661;28;19920;-73
2022/11/23 08:33:11;;;;;;;;;;;7.70;99.90;;;;;;5120552;27;20014;-72
2022/11/23 08:35:38;;;;;;;;;;;7.80;99.90;;;;;;5098651;28;20334;-72
2022/11/23 08:38:04;;;;;;;;;;;7.70;99.90;;;;;;5130661;27;19919;-72
2022/11/23 08:40:30;;;;;;;;;;;7.80;99.90;;;;;;5091413;28;19931;-72
2022/11/23 08:42:55;;;;;;;;;;;7.60;99.90;;;;;;5106916;28;19924;-72
2022/11/23 08:45:21;;;;;;;;;;;7.70;99.90;;;;;;5094985;28;19947;-72
2022/11/23 08:47:46;;;;;;;;;;;7.70;99.90;;;;;;5093510;28;20401;-72
2022/11/23 08:50:12;;;;;;;;;;;7.60;99.90;;;;;;5129349;27;20367;-72
2022/11/23 08:52:38;;;;;;;;;;;7.70;99.90;;;;;;5093830;28;19927;-73
2022/11/23 08:55:04;;;;;;;;;;;7.60;99.90;;;;;;5103391;28;19924;-72
2022/11/23 08:57:29;;;;;;;;;;;7.60;99.90;;;;;;5092040;28;20378;-73
2022/11/23 08:59:55;;;;;;;;;;;7.70;99.90;;;;;;5096124;28;20303;-73
2022/11/23 09:02:20;;;;;;;;;;;7.80;99.90;;;;;;5125371;27;19928;-72
2022/11/23 09:04:46;;;;;;;;;;;7.90;99.90;;;;;;5127424;27;20502;-73
2022/11/23 09:07:12;;;;;;;;;;;7.90;99.90;;;;;;5095618;28;19971;-73
2022/11/23 09:09:38;;;;;;;;;;;8.00;99.90;;;;;;5113496;27;19926;-71
2022/11/23 09:12:03;;;;;;;;;;;8.00;99.90;;;;;;5095836;27;20298;-71
2022/11/23 09:14:29;;;;;;;;;;;8.00;99.90;;;;;;5094704;28;19926;-69
2022/11/23 09:16:54;;;;;;;;;;;8.10;99.90;;;;;;5128869;27;19923;-71
2022/11/23 09:19:20;;;;;;;;;;;8.20;99.90;;;;;;5125678;27;19926;-64
2022/11/23 09:21:46;;;;;;;;;;;8.10;99.90;;;;;;5094753;28;19967;-72
2022/11/23 09:24:11;;;;;;;;;;;8.20;99.90;;;;;;5095142;27;19962;-71
2022/11/23 09:26:37;;;;;;;;;;;8.30;99.90;;;;;;5092148;28;19919;-73
2022/11/23 09:29:07;;;;;;;;;;;8.30;99.90;;;;;;5120052;27;19919;-68
2022/11/23 09:31:33;;;;;;;;;;;8.30;99.90;;;;;;5097005;28;19927;-74
2022/11/23 09:33:58;;;;;;;;;;;8.30;99.90;;;;;;5106344;28;19920;-73
2022/11/23 09:36:24;;;;;;;;;;;8.40;99.90;;;;;;5090839;28;19971;-75
2022/11/23 09:38:49;;;;;;;;;;;8.40;99.90;;;;;;5095650;28;19970;-67
2022/11/23 09:41:21;;;;;;;;;;;8.40;99.90;;;;;;5100032;28;19935;-67
2022/11/23 09:43:59;;;;;;;;;;;8.40;99.90;;;;;;5111619;28;19924;-70
2022/11/23 09:46:27;;;;;;;;;;;8.50;99.90;;;;;;5108734;28;19920;-72
2022/11/23 09:48:53;;;;;;;;;;;8.50;99.90;;;;;;5098008;28;19927;-67
2022/11/23 09:51:19;;;;;;;;;;;8.50;99.90;;;;;;5085645;28;19923;-69
2022/11/23 09:53:45;;;;;;;;;;;8.50;99.90;;;;;;5110609;28;19919;-70
2022/11/23 09:56:22;;;;;;;;;;;8.60;99.90;;;;;;5100189;28;19931;-71
2022/11/23 09:58:52;;;;;;;;;;;8.80;99.90;;;;;;5095724;28;19962;-71
2022/11/23 10:01:18;;;;;;;;;;;8.80;99.90;;;;;;5089676;28;19931;-73
2022/11/23 10:03:44;;;;;;;;;;;8.80;99.90;;;;;;5103224;28;19920;-68
2022/11/23 10:06:18;;;;;;;;;;;8.80;99.90;;;;;;5122902;27;20420;-69
2022/11/23 10:08:59;;;;;;;;;;;8.70;99.90;;;;;;5132446;27;19926;-70
2022/11/23 10:11:37;;;;;;;;;;;8.80;99.90;;;;;;5140086;27;19920;-70
2022/11/23 10:14:18;;;;;;;;;;;8.70;99.90;;;;;;5097754;28;19970;-72
2022/11/23 10:16:52;;;;;;;;;;;8.70;99.90;;;;;;5091656;28;20401;-72
2022/11/23 10:19:20;;;;;;;;;;;8.80;99.90;;;;;;5097914;28;19924;-70
2022/11/23 10:21:55;;;;;;;;;;;8.70;99.90;;;;;;5088637;28;20329;-71
2022/11/23 10:24:27;;;;;;;;;;;8.80;99.90;;;;;;5123909;27;19923;-71
2022/11/23 10:26:53;;;;;;;;;;;8.80;99.90;;;;;;5091170;28;19928;-69
2022/11/23 10:29:18;;;;;;;;;;;8.90;99.90;;;;;;5131148;27;20322;-70
2022/11/23 10:31:45;;;;;;;;;;;8.90;99.90;;;;;;5098837;28;19967;-69
2022/11/23 10:34:25;;;;;;;;;;;8.80;99.90;;;;;;5114848;28;19923;-72
2022/11/23 10:36:50;;;;;;;;;;;8.90;99.90;;;;;;5097609;28;19920;-70
2022/11/23 10:39:21;;;;;;;;;;;9.00;99.90;;;;;;5142841;27;20286;-73
2022/11/23 10:41:48;;;;;;;;;;;9.00;99.90;;;;;;5099943;28;19928;-72
2022/11/23 10:44:16;;;;;;;;;;;9.10;99.90;;;;;;5110317;28;19919;-73
2022/11/23 10:46:42;;;;;;;;;;;9.20;99.90;;;;;;5087820;28;19927;-71
2022/11/23 10:49:20;;;;;;;;;;;9.20;99.90;;;;;;5099051;28;20293;-72
2022/11/23 10:51:52;;;;;;;;;;;9.30;99.90;;;;;;5101301;28;20685;-72
2022/11/23 10:54:27;;;;;;;;;;;9.30;99.90;;;;;;5097133;28;19920;-69
2022/11/23 10:56:53;;;;;;;;;;;9.50;99.90;;;;;;5134199;27;20367;-71
2022/11/23 10:59:26;;;;;;;;;;;9.70;99.90;;;;;;5073903;28;19931;-71
2022/11/23 11:01:58;;;;;;;;;;;9.70;99.90;;;;;;5136613;27;20007;-72
2022/11/23 11:04:24;;;;;;;;;;;9.80;99.90;;;;;;5090479;28;20045;-70
2022/11/23 11:06:50;;;;;;;;;;;9.80;99.90;;;;;;5113098;27;20014;-70
2022/11/23 11:09:20;;;;;;;;;;;9.70;99.90;;;;;;5100174;28;19919;-68
2022/11/23 11:11:46;;;;;;;;;;;9.70;99.90;;;;;;5108262;28;19926;-68
2022/11/23 11:14:22;;;;;;;;;;;9.70;99.90;;;;;;5112715;28;19926;-68
2022/11/23 11:16:47;;;;;;;;;;;9.60;99.90;;;;;;5112380;28;21545;-71
2022/11/23 11:19:24;;;;;;;;;;;9.60;99.90;;;;;;5109136;28;20423;-69
2022/11/23 11:21:50;;;;;;;;;;;9.60;99.90;;;;;;5111002;28;19935;-65
2022/11/23 11:24:21;;;;;;;;;;;9.70;99.90;;;;;;5113131;28;19920;-69
2022/11/23 11:26:51;;;;;;;;;;;9.60;99.90;;;;;;5104763;28;19923;-68
2022/11/23 11:29:32;;;;;;;;;;;9.60;99.90;;;;;;5127778;27;20000;-68
2022/11/23 11:32:03;;;;;;;;;;;9.70;99.90;;;;;;5101689;28;20009;-66
2022/11/23 11:34:31;;;;;;;;;;;9.70;99.90;;;;;;5100686;28;19920;-69
2022/11/23 11:37:08;;;;;;;;;;;9.70;99.90;;;;;;5104345;28;19924;-68
2022/11/23 11:39:40;;;;;;;;;;;9.70;99.90;;;;;;5112217;28;19920;-68
2022/11/23 11:42:07;;;;;;;;;;;9.70;99.90;;;;;;5135159;27;19931;-70
2022/11/23 11:44:35;;;;;;;;;;;9.70;99.90;;;;;;5111064;28;19919;-68
2022/11/23 11:47:14;;;;;;;;;;;9.80;99.90;;;;;;5088130;28;20489;-67
2022/11/23 11:49:42;;;;;;;;;;;9.80;99.90;;;;;;5113799;28;19924;-66
2022/11/23 11:52:10;;;;;;;;;;;9.70;99.90;;;;;;5108606;27;19926;-67
2022/11/23 11:54:44;;;;;;;;;;;9.70;99.90;;;;;;5110189;27;20005;-66
2022/11/23 11:57:20;;;;;;;;;;;9.70;99.90;;;;;;5105755;28;19927;-68
2022/11/23 11:59:47;;;;;;;;;;;9.70;99.90;;;;;;5101018;28;19979;-67
2022/11/23 12:02:22;;;;;;;;;;;9.70;99.90;;;;;;5138893;27;20335;-68
2022/11/23 12:04:47;;;;;;;;;;;9.70;99.90;;;;;;5107091;28;20302;-69
2022/11/23 12:07:30;;;;;;;;;;;9.70;99.90;;;;;;5110580;28;19927;-68
2022/11/23 12:10:00;;;;;;;;;;;9.70;99.90;;;;;;5144785;27;19928;-64
2022/11/23 12:12:26;;;;;;;;;;;9.70;99.90;;;;;;5093644;28;20480;-68
2022/11/23 12:14:51;;;;;;;;;;;9.70;99.90;;;;;;5107815;28;20014;-66
2022/11/23 12:17:20;;;;;;;;;;;9.70;99.90;;;;;;5105234;28;19955;-65
2022/11/23 12:20:03;;;;;;;;;;;9.70;99.90;;;;;;5092745;28;19921;-66
2022/11/23 12:22:29;;;;;;;;;;;9.60;99.90;;;;;;5143127;27;19927;-66
2022/11/23 12:25:14;;;;;;;;;;;9.70;99.90;;;;;;5107759;28;19973;-67
2022/11/23 12:27:59;;;;;;;;;;;9.60;99.90;;;;;;5137368;27;19924;-66
2022/11/23 12:30:34;;;;;;;;;;;9.60;99.90;;;;;;5108700;28;19920;-66
2022/11/23 12:33:15;;;;;;;;;;;9.70;99.90;;;;;;5107298;28;19921;-66
2022/11/23 12:35:41;;;;;;;;;;;9.60;99.90;;;;;;5092627;28;19930;-67
2022/11/23 12:38:10;;;;;;;;;;;9.60;99.90;;;;;;5139778;27;19919;-65
2022/11/23 12:40:41;;;;;;;;;;;9.60;99.90;;;;;;5108424;28;19993;-65
2022/11/23 12:43:25;;;;;;;;;;;9.60;99.90;;;;;;5094065;28;20306;-68
2022/11/23 12:45:53;;;;;;;;;;;9.50;99.90;;;;;;5100555;28;19924;-67
2022/11/23 12:48:26;;;;;;;;;;;9.40;99.90;;;;;;5088480;28;20332;-66
2022/11/23 12:51:07;;;;;;;;;;;9.40;99.90;;;;;;5109826;28;19923;-64
2022/11/23 12:53:46;;;;;;;;;;;9.40;99.90;;;;;;5134901;27;19919;-65
2022/11/23 12:56:14;;;;;;;;;;;9.40;99.90;;;;;;5075541;28;20381;-69
2022/11/23 12:58:41;;;;;;;;;;;9.40;99.90;;;;;;5092208;28;20267;-67
2022/11/23 13:01:31;;;;;;;;;;;9.50;99.90;;;;;;5092891;28;20006;-66
2022/11/23 13:04:09;;;;;;;;;;;9.50;99.90;;;;;;5079028;28;20347;-67
2022/11/23 13:06:41;;;;;;;;;;;9.50;99.90;;;;;;5090390;28;19977;-68
2022/11/23 13:09:12;;;;;;;;;;;9.50;99.90;;;;;;5094233;27;20347;-64
2022/11/23 13:11:57;;;;;;;;;;;9.50;99.90;;;;;;5094540;27;20461;-66
2022/11/23 13:14:32;;;;;;;;;;;9.50;99.90;;;;;;5128120;27;20038;-67
2022/11/23 13:17:04;;;;;;;;;;;9.50;99.90;;;;;;5136905;27;20015;-68
2022/11/23 13:19:30;;;;;;;;;;;9.40;99.90;;;;;;5110099;28;19964;-66
2022/11/23 13:21:56;;;;;;;;;;;9.40;99.90;;;;;;5094213;28;19932;-68
2022/11/23 13:24:29;;;;;;;;;;;9.40;99.90;;;;;;5112229;28;19923;-68
2022/11/23 13:27:13;;;;;;;;;;;9.40;99.90;;;;;;5107059;28;20387;-66
2022/11/23 13:29:48;;;;;;;;;;;9.40;99.90;;;;;;5125485;27;19927;-67
2022/11/23 13:32:32;;;;;;;;;;;9.40;99.90;;;;;;5105124;27;19927;-66
2022/11/23 13:34:57;;;;;;;;;;;9.30;99.90;;;;;;5099352;27;20358;-66
2022/11/23 13:37:23;;;;;;;;;;;9.20;99.90;;;;;;5108951;28;19927;-66
2022/11/23 13:39:49;;;;;;;;;;;9.20;99.90;;;;;;5102761;28;19924;-66
2022/11/23 13:42:15;;;;;;;;;;;9.10;99.90;;;;;;5094181;28;19931;-67
2022/11/23 13:44:41;;;;;;;;;;;9.10;99.90;;;;;;5109700;28;19984;-67
2022/11/23 13:47:14;;;;;;;;;;;9.10;99.90;;;;;;5108448;28;19928;-67
2022/11/23 13:49:43;;;;;;;;;;;9.10;99.90;;;;;;5102408;28;19920;-67
2022/11/23 13:52:23;;;;;;;;;;;9.10;99.90;;;;;;5105634;28;19931;-65
2022/11/23 13:54:58;;;;;;;;;;;9.20;99.90;;;;;;5110356;28;19930;-66
2022/11/23 13:57:24;;;;;;;;;;;9.20;99.90;;;;;;5108206;28;19920;-64
2022/11/23 13:59:50;;;;;;;;;;;9.20;99.90;;;;;;5101873;28;19927;-69
2022/11/23 14:02:16;;;;;;;;;;;9.20;99.90;;;;;;5105872;27;19924;-66
2022/11/23 14:04:43;;;;;;;;;;;9.10;99.90;;;;;;5091406;28;20386;-64
2022/11/23 14:07:21;;;;;;;;;;;9.10;99.90;;;;;;5077115;28;19923;-66
2022/11/23 14:10:05;;;;;;;;;;;9.10;99.90;;;;;;5105572;28;19919;-66
2022/11/23 14:12:53;;;;;;;;;;;9.00;99.90;;;;;;5106456;28;19965;-66
2022/11/23 14:15:23;;;;;;;;;;;8.90;99.90;;;;;;5144589;27;19926;-64
2022/11/23 14:17:55;;;;;;;;;;;8.80;99.90;;;;;;5104875;28;20337;-66
2022/11/23 14:20:39;;;;;;;;;;;8.70;99.90;;;;;;5091268;28;19981;-67
2022/11/23 14:23:23;;;;;;;;;;;8.60;99.90;;;;;;5101683;28;19928;-66
2022/11/23 14:26:09;;;;;;;;;;;8.60;99.90;;;;;;5105449;28;20040;-66
2022/11/23 14:28:38;;;;;;;;;;;8.50;99.90;;;;;;5051799;28;19920;-67
2022/11/23 14:31:11;;;;;;;;;;;8.40;99.90;;;;;;5104803;28;19927;-67
2022/11/23 14:33:36;;;;;;;;;;;8.40;99.90;;;;;;5101245;28;19927;-65
2022/11/23 14:36:12;;;;;;;;;;;8.30;99.90;;;;;;5123464;27;19924;-69